SAVANNAH NWR GA US current weather conditions

sailwx.info

Air temperature 16.7° C
Dewpoint 16.7° C

Last reported at 2020-Sep-24 06:23 UTC.
Time now 2020-Sep-24 07:54 UTC

Location: N 32°06' W 081°05'.
View on Google Maps.

See reports from other nearby stations

  
Tides and Currents Weather Stations Pressure Air Temp Water Temp Dewpoint Dewpoint Depression Visibility Wind Speed Wind Dir Waves Ship Positions
date/time (UTC)wind fromknots sea level pressurealtimeterstation pressurevisibilityair tempwater tempwave heightnotes
2020-Sep-24 06:23 16.7
2020-Sep-24 05:23 16.7
2020-Sep-24 04:23 044 2 gusting 3 16.7
2020-Sep-24 03:23 17.8
2020-Sep-24 02:23 134 1 gusting 3 18.9
2020-Sep-24 01:23 19.4
2020-Sep-24 00:23 141 1 gusting 3 19.4
2020-Sep-23 23:23 129 2 gusting 6 21.1
2020-Sep-23 22:23 112 4 gusting 7 22.2
2020-Sep-23 21:23 132 5 gusting 9 23.3
2020-Sep-23 20:23 142 4 gusting 7 25.6
2020-Sep-23 19:23 330 2 gusting 6 25.0
2020-Sep-23 18:23 012 2 gusting 7 25.6
2020-Sep-23 17:23 188 3 gusting 6 25.6
2020-Sep-23 16:23 094 3 gusting 6 25.0
2020-Sep-23 15:23 197 4 gusting 6 23.9
2020-Sep-23 14:23 018 1 gusting 3 21.7
2020-Sep-23 13:23 347 2 gusting 4 18.9
2020-Sep-23 12:23 021 1 gusting 3 16.1
2020-Sep-23 11:23 329 1 gusting 2 14.4
2020-Sep-23 10:23 14.4
2020-Sep-23 09:23 024 0 gusting 2 14.4
2020-Sep-23 08:23 14.4
2020-Sep-23 07:23 13.9
2020-Sep-23 06:23 15.0
2020-Sep-23 05:23 14.4
2020-Sep-23 04:23 15.0
2020-Sep-23 03:23 15.0
2020-Sep-23 02:23 14.4
2020-Sep-23 01:23 15.6
2020-Sep-23 00:23 120 0 gusting 2 16.7
2020-Sep-22 23:23 120 1 gusting 6 18.3
2020-Sep-22 22:23 132 5 gusting 6 22.2
2020-Sep-22 21:23 120 2 gusting 6 24.4
2020-Sep-22 20:23 340 4 gusting 8 23.9
2020-Sep-22 19:23 354 5 gusting 9 23.9
2020-Sep-22 18:23 311 4 gusting 8 22.8
2020-Sep-22 17:23 075 3 gusting 8 23.3
2020-Sep-22 16:23 066 3 gusting 8 22.2
2020-Sep-22 15:23 041 6 gusting 12 20.6
2020-Sep-22 14:23 034 7 gusting 13 18.9
2020-Sep-22 13:23 032 7 gusting 13 16.7
2020-Sep-22 12:23 026 5 gusting 10 14.4
2020-Sep-22 11:23 018 5 gusting 10 12.8
2020-Sep-22 10:23 028 6 gusting 11 13.3
2020-Sep-22 09:23 021 5 gusting 8 13.9
2020-Sep-22 08:23 017 5 gusting 7 14.4
2020-Sep-22 07:23 025 4 gusting 10 15.6